createdAt,value
2018-06-10T00:01:06.136Z,4.23
2018-06-10T00:03:35.044Z,4.67
2018-06-10T00:06:03.995Z,6.10
2018-06-10T00:08:32.886Z,5.80
2018-06-10T00:11:01.546Z,4.73
2018-06-10T00:13:30.210Z,5.13
2018-06-10T00:15:58.898Z,5.20
2018-06-10T00:18:29.345Z,4.90
2018-06-10T00:20:59.700Z,4.43
2018-06-10T00:23:29.246Z,4.53
2018-06-10T00:25:58.125Z,4.40
2018-06-10T00:28:32.626Z,3.93
2018-06-10T00:31:01.526Z,4.00
2018-06-10T00:33:30.482Z,4.10
2018-06-10T00:35:59.384Z,4.63
2018-06-10T00:38:28.323Z,4.47
2018-06-10T00:40:57.229Z,4.60
2018-06-10T00:43:26.135Z,5.40
2018-06-10T00:45:55.048Z,5.30
2018-06-10T00:48:26.449Z,5.40
2018-06-10T00:50:55.370Z,5.57
2018-06-10T00:53:24.290Z,7.37
2018-06-10T00:55:53.222Z,6.90
2018-06-10T00:58:22.137Z,6.07
2018-06-10T01:00:51.055Z,6.20
2018-06-10T01:03:20.591Z,5.53
2018-06-10T01:05:49.512Z,5.87
2018-06-10T01:08:18.420Z,5.43
2018-06-10T01:10:47.382Z,5.40
2018-06-10T01:13:16.487Z,4.97
2018-06-10T01:15:45.417Z,5.23
2018-06-10T01:18:14.442Z,5.00
2018-06-10T01:20:43.136Z,4.93
2018-06-10T01:23:11.798Z,5.00
2018-06-10T01:25:40.430Z,4.70
2018-06-10T01:28:09.100Z,4.70
2018-06-10T01:30:37.707Z,5.13
2018-06-10T01:33:06.312Z,4.80
2018-06-10T01:35:34.980Z,5.10
2018-06-10T01:38:03.579Z,4.37
2018-06-10T01:40:32.187Z,4.77
2018-06-10T01:43:00.774Z,4.97
2018-06-10T01:45:29.375Z,4.70
2018-06-10T01:47:57.965Z,5.17
2018-06-10T01:50:26.563Z,4.47
2018-06-10T01:52:55.180Z,4.70
2018-06-10T01:55:23.812Z,4.50
2018-06-10T01:57:52.404Z,4.73
2018-06-10T02:00:21.168Z,6.90
2018-06-10T02:02:50.043Z,7.97
2018-06-10T02:05:18.922Z,7.67
2018-06-10T02:07:47.815Z,8.97
2018-06-10T02:10:16.770Z,5.93
2018-06-10T02:12:45.643Z,6.33
2018-06-10T02:15:14.575Z,5.63
2018-06-10T02:17:43.487Z,5.73
2018-06-10T02:20:12.442Z,9.00
2018-06-10T02:22:41.131Z,6.17
2018-06-10T02:25:09.818Z,18.13
2018-06-10T02:27:38.435Z,11.23
2018-06-10T02:30:07.113Z,9.23
2018-06-10T02:32:38.157Z,6.00
2018-06-10T02:35:06.896Z,6.70
2018-06-10T02:37:35.538Z,6.57
2018-06-10T02:40:04.289Z,6.70
2018-06-10T02:42:32.929Z,6.33
2018-06-10T02:45:01.543Z,6.17
2018-06-10T02:47:30.166Z,6.30
2018-06-10T02:49:58.768Z,6.47
2018-06-10T02:52:27.363Z,5.97
2018-06-10T02:54:56.224Z,6.03
2018-06-10T02:57:24.863Z,5.97
2018-06-10T02:59:53.464Z,7.00
2018-06-10T03:02:22.066Z,6.40
2018-06-10T03:04:50.711Z,6.97
2018-06-10T03:07:19.331Z,7.43
2018-06-10T03:09:47.951Z,6.77
2018-06-10T03:12:16.595Z,7.00
2018-06-10T03:14:45.211Z,7.17
2018-06-10T03:17:13.882Z,7.77
2018-06-10T03:19:42.538Z,6.87
2018-06-10T03:22:11.183Z,7.20
2018-06-10T03:24:39.863Z,6.13
2018-06-10T03:27:08.520Z,6.50
2018-06-10T03:29:37.184Z,6.43
2018-06-10T03:32:05.907Z,6.67
2018-06-10T03:34:34.516Z,8.40
2018-06-10T03:37:03.118Z,5.10
2018-06-10T03:39:31.831Z,5.60
2018-06-10T03:42:00.683Z,6.00
2018-06-10T03:44:29.539Z,6.50
2018-06-10T03:46:58.438Z,6.60
2018-06-10T03:49:27.228Z,6.07
2018-06-10T03:51:55.870Z,4.27
2018-06-10T03:54:24.606Z,5.20
2018-06-10T03:56:53.296Z,4.90
2018-06-10T03:59:21.981Z,5.00
2018-06-10T04:01:50.663Z,4.33
2018-06-10T04:04:19.335Z,3.87
2018-06-10T04:06:47.993Z,3.50
2018-06-10T04:09:16.743Z,3.47
2018-06-10T04:11:45.743Z,3.30
2018-06-10T04:14:14.677Z,3.40
2018-06-10T04:16:43.596Z,2.93
2018-06-10T04:19:12.571Z,3.20
2018-06-10T04:21:41.266Z,3.47
2018-06-10T04:24:10.019Z,3.23
2018-06-10T04:26:38.650Z,3.13
2018-06-10T04:29:07.323Z,3.40
2018-06-10T04:31:36.003Z,3.40
2018-06-10T04:34:04.740Z,4.67
2018-06-10T04:36:33.411Z,3.50
2018-06-10T04:39:02.147Z,3.50
2018-06-10T04:41:30.803Z,3.20
2018-06-10T04:43:59.485Z,3.40
2018-06-10T04:46:28.091Z,3.10
2018-06-10T04:48:56.886Z,3.33
2018-06-10T04:51:25.788Z,2.90
2018-06-10T04:53:54.678Z,3.23
2018-06-10T04:56:23.670Z,3.10
2018-06-10T04:58:52.546Z,3.10
2018-06-10T05:01:21.476Z,2.80
2018-06-10T05:03:50.415Z,2.70
2018-06-10T05:06:19.339Z,3.20
2018-06-10T05:08:48.240Z,3.57
2018-06-10T05:11:16.835Z,4.53
2018-06-10T05:13:45.512Z,4.43
2018-06-10T05:16:14.149Z,4.93
2018-06-10T05:18:42.885Z,4.70
2018-06-10T05:21:11.625Z,4.60
2018-06-10T05:23:40.051Z,4.30
2018-06-10T05:26:08.665Z,4.00
2018-06-10T05:28:37.518Z,3.87
2018-06-10T05:31:06.489Z,3.57
2018-06-10T05:33:35.493Z,4.00
2018-06-10T05:36:04.401Z,3.77
2018-06-10T05:38:33.273Z,3.23
2018-06-10T05:41:01.931Z,3.30
2018-06-10T05:43:30.403Z,3.20
2018-06-10T05:45:59.033Z,3.47
2018-06-10T05:48:27.695Z,3.30
2018-06-10T05:50:56.621Z,3.03
2018-06-10T05:53:25.586Z,3.10
2018-06-10T05:55:54.809Z,3.23
2018-06-10T05:58:23.526Z,3.40
2018-06-10T06:00:52.109Z,3.10
2018-06-10T06:03:20.941Z,3.87
2018-06-10T06:05:49.573Z,3.67
2018-06-10T06:08:18.323Z,3.27
2018-06-10T06:10:47.259Z,3.50
2018-06-10T06:13:16.186Z,3.83
2018-06-10T06:15:45.084Z,3.90
2018-06-10T06:18:13.933Z,3.83
2018-06-10T06:20:42.592Z,3.57
2018-06-10T06:23:11.221Z,3.57
2018-06-10T06:25:39.896Z,3.43
2018-06-10T06:28:08.551Z,3.40
2018-06-10T06:30:37.191Z,3.60
2018-06-10T06:33:05.776Z,3.20
2018-06-10T06:35:34.396Z,3.30
2018-06-10T06:38:03.023Z,3.20
2018-06-10T06:40:31.685Z,3.17
2018-06-10T06:43:00.355Z,2.90
2018-06-10T06:45:28.926Z,3.33
2018-06-10T06:47:57.593Z,3.05
2018-06-10T06:50:26.239Z,3.12
2018-06-10T06:52:55.011Z,3.22
2018-06-10T06:55:23.657Z,2.92
2018-06-10T06:57:52.386Z,3.15
2018-06-10T07:00:20.952Z,3.62
2018-06-10T07:02:50.340Z,4.05
2018-06-10T07:05:19.037Z,5.25
2018-06-10T07:07:47.784Z,5.12
2018-06-10T07:10:16.679Z,3.98
2018-06-10T07:12:45.578Z,3.65
2018-06-10T07:15:14.531Z,3.25
2018-06-10T07:17:43.465Z,2.50
2018-06-10T07:20:12.174Z,2.40
2018-06-10T07:22:40.831Z,3.30
2018-06-10T07:25:09.491Z,2.85
2018-06-10T07:27:38.570Z,2.70
2018-06-10T07:30:07.501Z,2.80
2018-06-10T07:32:36.396Z,2.45
2018-06-10T07:35:05.424Z,2.35
2018-06-10T07:37:34.400Z,2.30
2018-06-10T07:40:03.036Z,2.12
2018-06-10T07:42:31.698Z,2.17
2018-06-10T07:45:00.263Z,2.47
2018-06-10T07:47:28.816Z,2.55
2018-06-10T07:49:57.386Z,2.40
2018-06-10T07:52:25.938Z,2.40
2018-06-10T07:54:54.316Z,2.40
2018-06-10T07:57:22.957Z,2.27
2018-06-10T07:59:51.775Z,2.30
2018-06-10T08:02:21.349Z,2.58
2018-06-10T08:04:50.183Z,2.17
2018-06-10T08:07:19.008Z,2.10
2018-06-10T08:09:47.831Z,2.25
2018-06-10T08:12:16.658Z,2.25
2018-06-10T08:14:45.465Z,2.22
2018-06-10T08:17:14.275Z,2.22
2018-06-10T08:19:42.836Z,1.98
2018-06-10T08:22:11.402Z,2.15
2018-06-10T08:24:39.951Z,2.17
2018-06-10T08:27:08.614Z,2.00
2018-06-10T08:29:37.415Z,2.00
2018-06-10T08:32:06.264Z,1.98
2018-06-10T08:34:35.083Z,2.00
2018-06-10T08:37:03.858Z,3.30
2018-06-10T08:39:32.628Z,2.40
2018-06-10T08:42:01.429Z,2.08
2018-06-10T08:44:29.984Z,2.90
2018-06-10T08:46:58.692Z,2.33
2018-06-10T08:49:27.531Z,2.70
2018-06-10T08:51:56.406Z,2.60
2018-06-10T08:54:25.223Z,2.40
2018-06-10T08:56:54.050Z,2.45
2018-06-10T08:59:22.955Z,2.30
2018-06-10T09:01:51.755Z,2.33
2018-06-10T09:04:20.591Z,2.37
2018-06-10T09:06:50.571Z,2.70
2018-06-10T09:09:19.498Z,2.20
2018-06-10T09:11:48.496Z,2.27
2018-06-10T09:14:17.512Z,2.30
2018-06-10T09:16:46.412Z,2.20
2018-06-10T09:19:15.082Z,2.20
2018-06-10T09:21:44.276Z,2.10
2018-06-10T09:24:12.897Z,2.20
2018-06-10T09:26:41.514Z,1.98
2018-06-10T09:29:10.394Z,1.80
2018-06-10T09:31:39.291Z,2.25
2018-06-10T09:34:08.235Z,2.20
2018-06-10T09:36:37.099Z,2.05
2018-06-10T09:39:07.919Z,1.92
2018-06-10T09:41:36.526Z,1.90
2018-06-10T09:44:05.149Z,2.08
2018-06-10T09:46:33.799Z,2.02
2018-06-10T09:49:02.359Z,2.30
2018-06-10T09:51:30.939Z,2.00
2018-06-10T09:53:59.531Z,2.02
2018-06-10T09:56:28.323Z,1.90
2018-06-10T09:58:57.299Z,2.02
2018-06-10T10:01:26.259Z,1.72
2018-06-10T10:03:55.349Z,1.72
2018-06-10T10:06:24.296Z,1.98
2018-06-10T10:08:53.737Z,1.80
2018-06-10T10:11:22.626Z,1.80
2018-06-10T10:13:51.576Z,1.82
2018-06-10T10:16:20.484Z,1.55
2018-06-10T10:18:49.211Z,1.57
2018-06-10T10:21:17.954Z,1.80
2018-06-10T10:23:46.666Z,2.02
2018-06-10T10:26:15.356Z,1.70
2018-06-10T10:28:44.806Z,1.67
2018-06-10T10:31:13.553Z,1.60
2018-06-10T10:33:42.224Z,1.77
2018-06-10T10:36:11.024Z,1.60
2018-06-10T10:38:39.925Z,1.37
2018-06-10T10:41:08.999Z,1.70
2018-06-10T10:43:37.931Z,1.80
2018-06-10T10:46:07.056Z,1.50
2018-06-10T10:48:36.299Z,1.77
2018-06-10T10:51:05.319Z,1.65
2018-06-10T10:53:35.031Z,2.02
2018-06-10T10:56:03.848Z,1.50
2018-06-10T10:58:32.507Z,1.75
2018-06-10T11:01:01.221Z,1.45
2018-06-10T11:03:29.996Z,1.70
2018-06-10T11:05:58.648Z,1.50
2018-06-10T11:08:27.235Z,1.80
2018-06-10T11:10:55.884Z,1.75
2018-06-10T11:13:24.516Z,1.70
2018-06-10T11:15:53.163Z,1.50
2018-06-10T11:18:21.789Z,1.60
2018-06-10T11:20:50.408Z,1.70
2018-06-10T11:23:19.003Z,1.60
2018-06-10T11:25:47.737Z,1.80
2018-06-10T11:28:16.678Z,1.50
2018-06-10T11:30:45.844Z,1.52
2018-06-10T11:33:14.747Z,1.50
2018-06-10T11:35:44.025Z,1.60
2018-06-10T11:38:12.603Z,1.37
2018-06-10T11:40:41.170Z,1.50
2018-06-10T11:43:09.568Z,1.62
2018-06-10T11:45:38.408Z,1.60
2018-06-10T11:48:07.328Z,1.60
2018-06-10T11:50:36.259Z,1.55
2018-06-10T11:53:05.128Z,1.70
2018-06-10T11:55:33.945Z,1.52
2018-06-10T11:58:03.435Z,1.85
2018-06-10T12:00:32.362Z,1.70
2018-06-10T12:03:01.292Z,1.60
2018-06-10T12:05:30.188Z,1.65
2018-06-10T12:07:59.095Z,2.00
2018-06-10T12:10:28.052Z,1.50
2018-06-10T12:12:58.020Z,1.70
2018-06-10T12:15:27.096Z,2.37
2018-06-10T12:17:55.895Z,1.50
2018-06-10T12:20:24.772Z,1.30
2018-06-10T12:22:53.485Z,1.60
2018-06-10T12:25:22.015Z,1.70
2018-06-10T12:27:50.610Z,1.62
2018-06-10T12:30:19.232Z,1.55
2018-06-10T12:32:47.872Z,1.80
2018-06-10T12:35:16.754Z,1.60
2018-06-10T12:37:45.614Z,1.70
2018-06-10T12:40:14.554Z,1.60
2018-06-10T12:42:43.486Z,1.57
2018-06-10T12:45:12.385Z,1.82
2018-06-10T12:47:41.357Z,1.67
2018-06-10T12:50:10.218Z,1.55
2018-06-10T12:52:39.097Z,1.50
2018-06-10T12:55:07.979Z,1.47
2018-06-10T12:57:36.626Z,1.70
2018-06-10T13:00:06.264Z,1.60
2018-06-10T13:02:34.964Z,1.60
2018-06-10T13:05:03.604Z,1.50
2018-06-10T13:07:32.236Z,1.70
2018-06-10T13:10:00.839Z,1.67
2018-06-10T13:12:29.431Z,1.70
2018-06-10T13:14:58.441Z,1.50
2018-06-10T13:17:27.156Z,1.60
2018-06-10T13:19:55.914Z,1.50
2018-06-10T13:22:24.613Z,1.70
2018-06-10T13:24:53.419Z,1.67
2018-06-10T13:27:22.331Z,1.65
2018-06-10T13:29:52.304Z,1.70
2018-06-10T13:32:21.233Z,1.60
2018-06-10T13:34:50.099Z,1.62
2018-06-10T13:37:19.080Z,1.87
2018-06-10T13:39:48.084Z,1.57
2018-06-10T13:42:16.926Z,1.57
2018-06-10T13:44:45.758Z,1.60
2018-06-10T13:47:14.405Z,1.70
2018-06-10T13:49:43.051Z,1.50
2018-06-10T13:52:11.684Z,1.72
2018-06-10T13:54:40.287Z,1.50
2018-06-10T13:57:09.169Z,1.62
2018-06-10T13:59:38.027Z,1.60
2018-06-10T14:02:07.464Z,1.75
2018-06-10T14:04:36.051Z,1.55
2018-06-10T14:07:04.698Z,1.87
2018-06-10T14:09:33.349Z,1.80
2018-06-10T14:12:02.099Z,1.60
2018-06-10T14:14:30.749Z,1.40
2018-06-10T14:16:59.379Z,1.72
2018-06-10T14:19:28.339Z,1.70
2018-06-10T14:21:57.361Z,1.40
2018-06-10T14:24:27.696Z,1.70
2018-06-10T14:26:58.482Z,1.70
2018-06-10T14:29:27.183Z,1.50
2018-06-10T14:31:55.841Z,1.60
2018-06-10T14:34:24.575Z,1.82
2018-06-10T14:36:53.244Z,1.50
2018-06-10T14:39:22.664Z,1.70
2018-06-10T14:41:51.139Z,1.80
2018-06-10T14:44:20.037Z,1.55
2018-06-10T14:46:48.711Z,1.57
2018-06-10T14:49:17.602Z,1.85
2018-06-10T14:51:46.543Z,1.50
2018-06-10T14:54:15.503Z,1.60
2018-06-10T14:56:45.063Z,1.77
2018-06-10T14:59:14.014Z,1.50
2018-06-10T15:01:42.979Z,1.60
2018-06-10T15:04:11.891Z,1.80
2018-06-10T15:06:41.694Z,1.80
2018-06-10T15:09:10.632Z,2.00
2018-06-10T15:11:40.229Z,1.70
2018-06-10T15:14:09.559Z,1.50
2018-06-10T15:16:38.554Z,1.55
2018-06-10T15:19:07.419Z,1.62
2018-06-10T15:21:36.771Z,1.40
2018-06-10T15:24:06.474Z,1.87
2018-06-10T15:26:35.424Z,1.50
2018-06-10T15:29:05.508Z,1.87
2018-06-10T15:31:34.959Z,1.80
2018-06-10T15:34:04.159Z,1.65
2018-06-10T15:36:32.879Z,1.65
2018-06-10T15:39:01.571Z,1.60
2018-06-10T15:41:30.217Z,1.77
2018-06-10T15:43:58.823Z,2.00
2018-06-10T15:46:27.484Z,1.60
2018-06-10T15:48:56.111Z,1.90
2018-06-10T15:51:24.834Z,1.80
2018-06-10T15:53:53.504Z,1.72
2018-06-10T15:56:22.411Z,1.70
2018-06-10T15:58:51.187Z,1.80
2018-06-10T16:01:20.059Z,1.57
2018-06-10T16:03:49.179Z,1.70
2018-06-10T16:06:18.035Z,1.80
2018-06-10T16:08:47.324Z,1.50
2018-06-10T16:11:16.051Z,1.80
2018-06-10T16:13:44.706Z,1.72
2018-06-10T16:16:13.409Z,1.72
2018-06-10T16:18:43.583Z,1.85
2018-06-10T16:21:12.361Z,1.70
2018-06-10T16:23:41.336Z,1.82
2018-06-10T16:26:10.338Z,1.52
2018-06-10T16:28:39.394Z,1.77
2018-06-10T16:31:08.403Z,2.10
2018-06-10T16:33:41.407Z,1.90
2018-06-10T16:36:10.129Z,2.15
2018-06-10T16:38:38.774Z,1.80
2018-06-10T16:41:07.507Z,1.90
2018-06-10T16:43:36.171Z,1.85
2018-06-10T16:46:04.904Z,2.00
2018-06-10T16:48:33.549Z,2.08
2018-06-10T16:51:02.323Z,2.05
2018-06-10T16:53:30.979Z,2.00
2018-06-10T16:56:00.036Z,2.02
2018-06-10T16:58:28.681Z,2.17
2018-06-10T17:00:57.371Z,2.10
2018-06-10T17:03:26.236Z,2.12
2018-06-10T17:05:55.180Z,2.10
2018-06-10T17:08:24.082Z,2.15
2018-06-10T17:10:52.998Z,2.10
2018-06-10T17:13:21.809Z,2.22
2018-06-10T17:15:50.728Z,2.20
2018-06-10T17:18:19.554Z,2.27
2018-06-10T17:20:48.265Z,2.00
2018-06-10T17:23:16.988Z,2.17
2018-06-10T17:25:45.701Z,2.17
2018-06-10T17:28:15.021Z,1.90
2018-06-10T17:30:43.711Z,1.98
2018-06-10T17:33:12.376Z,2.27
2018-06-10T17:35:41.888Z,2.22
2018-06-10T17:38:14.071Z,2.22
2018-06-10T17:40:43.631Z,2.30
2018-06-10T17:43:12.640Z,2.10
2018-06-10T17:45:41.653Z,2.07
2018-06-10T17:48:10.630Z,2.25
2018-06-10T17:50:39.615Z,2.10
2018-06-10T17:53:08.596Z,2.50
2018-06-10T17:55:37.468Z,2.20
2018-06-10T17:58:22.278Z,2.60
2018-06-10T18:00:51.308Z,2.70
2018-06-10T18:03:20.323Z,2.67
2018-06-10T18:05:49.283Z,2.30
2018-06-10T18:08:18.328Z,2.52
2018-06-10T18:10:47.386Z,2.80
2018-06-10T18:13:17.263Z,2.80
2018-06-10T18:15:46.148Z,2.75
2018-06-10T18:18:14.939Z,2.50
2018-06-10T18:20:44.446Z,2.50
2018-06-10T18:23:13.185Z,2.53
2018-06-10T18:25:42.089Z,2.40
2018-06-10T18:28:11.211Z,2.50
2018-06-10T18:30:40.293Z,2.40
2018-06-10T18:33:10.045Z,2.43
2018-06-10T18:35:38.723Z,2.90
2018-06-10T18:38:07.483Z,2.60
2018-06-10T18:40:36.235Z,2.90
2018-06-10T18:43:04.883Z,2.73
2018-06-10T18:45:34.326Z,2.70
2018-06-10T18:48:03.404Z,2.60
2018-06-10T18:50:32.084Z,2.33
2018-06-10T18:53:00.715Z,2.40
2018-06-10T18:55:30.078Z,2.50
2018-06-10T18:57:59.023Z,2.60
2018-06-10T19:00:27.975Z,2.43
2018-06-10T19:02:57.053Z,2.60
2018-06-10T19:05:25.965Z,3.00
2018-06-10T19:07:54.589Z,2.60
2018-06-10T19:10:23.359Z,2.80
2018-06-10T19:12:52.014Z,2.87
2018-06-10T19:15:20.776Z,2.83
2018-06-10T19:17:49.723Z,2.90
2018-06-10T19:20:19.436Z,3.30
2018-06-10T19:22:49.681Z,3.10
2018-06-10T19:25:19.493Z,3.20
2018-06-10T19:27:48.189Z,3.23
2018-06-10T19:30:16.976Z,3.20
2018-06-10T19:32:45.716Z,2.90
2018-06-10T19:35:14.397Z,3.03
2018-06-10T19:37:43.556Z,3.20
2018-06-10T19:40:12.559Z,2.90
2018-06-10T19:42:41.869Z,2.70
2018-06-10T19:45:10.960Z,2.87
2018-06-10T19:47:39.976Z,2.50
2018-06-10T19:50:09.724Z,2.80
2018-06-10T19:52:38.788Z,2.70
2018-06-10T19:55:07.751Z,2.60
2018-06-10T19:57:36.736Z,2.30
2018-06-10T20:00:05.923Z,2.60
2018-06-10T20:02:34.586Z,2.67
2018-06-10T20:05:03.403Z,2.70
2018-06-10T20:07:32.176Z,2.80
2018-06-10T20:10:00.844Z,2.73
2018-06-10T20:12:30.452Z,2.93
2018-06-10T20:14:59.533Z,3.63
2018-06-10T20:17:28.364Z,5.30
2018-06-10T20:19:57.361Z,5.13
2018-06-10T20:22:26.380Z,3.53
2018-06-10T20:24:56.666Z,4.30
2018-06-10T20:27:25.733Z,3.90
2018-06-10T20:29:55.472Z,3.10
2018-06-10T20:32:24.509Z,3.33
2018-06-10T20:34:53.596Z,3.73
2018-06-10T20:37:22.598Z,4.10
2018-06-10T20:39:52.521Z,4.13
2018-06-10T20:42:21.206Z,3.50
2018-06-10T20:44:49.978Z,3.53
2018-06-10T20:47:18.711Z,3.80
2018-06-10T20:49:48.050Z,3.50
2018-06-10T20:52:17.086Z,3.37
2018-06-10T20:54:45.966Z,3.33
2018-06-10T20:57:14.884Z,3.73
2018-06-10T20:59:43.796Z,3.50
2018-06-10T21:02:13.349Z,3.50
2018-06-10T21:04:43.083Z,3.23
2018-06-10T21:07:12.767Z,3.57
2018-06-10T21:09:42.282Z,4.43
2018-06-10T21:12:11.764Z,4.17
2018-06-10T21:14:40.703Z,4.10
2018-06-10T21:17:10.900Z,4.00
2018-06-10T21:19:39.699Z,3.23
2018-06-10T21:22:08.373Z,3.37
2018-06-10T21:24:36.964Z,3.80
2018-06-10T21:27:06.265Z,3.47
2018-06-10T21:29:35.021Z,3.53
2018-06-10T21:32:49.465Z,3.97
2018-06-10T21:35:25.576Z,3.70
2018-06-10T21:37:56.291Z,3.27
2018-06-10T21:40:26.851Z,3.17
2018-06-10T21:42:55.519Z,3.57
2018-06-10T21:45:24.151Z,3.40
2018-06-10T21:47:52.824Z,3.60
2018-06-10T21:50:21.625Z,3.30
2018-06-10T21:52:50.547Z,3.27
2018-06-10T21:55:19.398Z,3.60
2018-06-10T21:57:48.377Z,3.80
2018-06-10T22:00:26.391Z,3.90
2018-06-10T22:02:55.063Z,3.90
2018-06-10T22:05:23.823Z,3.60
2018-06-10T22:07:52.471Z,3.80
2018-06-10T22:10:22.328Z,3.77
2018-06-10T22:12:51.235Z,3.57
2018-06-10T22:15:20.081Z,3.80
2018-06-10T22:17:50.041Z,3.80
2018-06-10T22:20:19.113Z,3.70
2018-06-10T22:22:48.018Z,4.10
2018-06-10T22:25:16.939Z,3.90
2018-06-10T22:27:45.847Z,3.93
2018-06-10T22:30:14.835Z,4.30
2018-06-10T22:32:43.573Z,3.90
2018-06-10T22:35:12.231Z,4.10
2018-06-10T22:37:40.797Z,4.30
2018-06-10T22:40:09.403Z,3.67
2018-06-10T22:42:37.993Z,3.90
2018-06-10T22:45:07.573Z,4.07
2018-06-10T22:47:36.183Z,3.97
2018-06-10T22:50:04.798Z,3.90
2018-06-10T22:52:35.451Z,4.17
2018-06-10T22:55:04.316Z,4.50
2018-06-10T22:57:33.263Z,4.23
2018-06-10T23:00:02.186Z,4.30
2018-06-10T23:02:30.944Z,4.50
2018-06-10T23:04:59.619Z,4.87
2018-06-10T23:07:28.298Z,4.83
2018-06-10T23:09:56.925Z,4.80
2018-06-10T23:12:25.606Z,4.60
2018-06-10T23:14:54.483Z,5.17
2018-06-10T23:17:23.414Z,4.87
2018-06-10T23:19:52.283Z,5.27
2018-06-10T23:22:21.168Z,5.17
2018-06-10T23:24:50.046Z,4.80
2018-06-10T23:27:18.907Z,4.80
2018-06-10T23:29:47.798Z,4.37
2018-06-10T23:32:17.676Z,5.10
2018-06-10T23:34:46.306Z,4.27
2018-06-10T23:37:14.958Z,4.40
2018-06-10T23:39:43.519Z,4.37
2018-06-10T23:42:12.263Z,3.70
2018-06-10T23:44:41.104Z,4.20
2018-06-10T23:47:09.975Z,4.30
2018-06-10T23:49:38.840Z,4.17
2018-06-10T23:52:07.628Z,3.73
2018-06-10T23:54:36.295Z,4.50
2018-06-10T23:57:04.896Z,4.40
2018-06-10T23:59:33.500Z,4.47
